Tyler, Minnesota
Current Conditions -  °F | °C
As of 12:15 PM on Thursday 29 Jan 2015 (Local Time) from KMML Reporting Station
Overcast Overcast  
Wind Chill: 12°   Ceiling: 1700
Heat Index: 27°   Visibility: 10mi
Dew Point: 18°   Wind: 22mph
Humidity: 69%   Direction: 350°N
Pressure: 30.41"   Gusts: NA
Location:  44.28°N, 96.13°W
Report Text: KMML 291815Z AUTO 35019KT 10SM OVC017 M03/M08 A3041 RMK AO1
Loading
Personal Weather Stations






























Interactive Weather Map New forecast layout! Learn more

10-Day Weather Forecast

Advertisements
Track Severe Weather on mobile